Portada
METAR-TAF:

METAR-TAF

Aeroports :

Guernsey,

latitud: 49-26N, longitud: 002-36W, altitud: 102 m

Observació

L'informe es va fer fa 14 minuts, a les 22:50 UTC
Vent 13 kt del Oest/Nord-Oest
Temperatura 11°C
Humitat 82%
Pressió 1014 hPa
Visibilitat 10 km o més
Escasses núvols a una alçada de 1500 ft
Cel ennuvolat a una alçada de 4200 ft

METAR: EGJB 062250Z 29013KT 9999 FEW015 BKN042 11/08 Q1014

Hora: 23:04 (23:04 UTC)

Pronòstic

L'informe es va fer fa 3 hores i 7 minuts, a les 19:57 UTC
Pronòstic vàlid del 06 a les 21 UTC al 07 a les 06 UTC
Vent 15 kt del Oest/Nord-Oest
Visibilitat 10 km o més
Escasses núvols a una alçada de 1200 ft
Núvols disperses a una alçada de 4000 ft
Probabilitat 30% :
Temporalment
l' 06 a les 21 UTC al 07 a les 06 UTC
Visibilitat: 8000 m
Cel ennuvolat a una alçada de 1200 ft
xàfecs de pluja

TAF: EGJB 061957Z 0621/0706 29015KT 9999 FEW012 SCT040 PROB30 TEMPO 0621/0706 8000 SHRA BKN012

Observacions i pronòstics meteorològics de més de 4000 aeroports (METAR i TAF).

Les estacions disponibles són els punts grocs i vermells al mapa.

Posi el ratolí al punt desitjat per veure el nom de l'estació.

Feu clic per veure les observacions i els pronòstics meteorològics.

Per canviar el mapa: feu clic els botons verds amb una creu de color negre per apropar; al botó verd amb un guió per allunyar la imatge; o en les fletxes verdes per a mapes adjacents.


METAR-TAF: